createdAt,value
2019-05-18T00:00:08.678Z,17.23
2019-05-18T00:02:37.160Z,17.23
2019-05-18T00:05:08.268Z,18.27
2019-05-18T00:07:36.749Z,17.77
2019-05-18T00:10:06.464Z,17.60
2019-05-18T00:12:35.009Z,18.73
2019-05-18T00:15:04.749Z,17.93
2019-05-18T00:17:33.220Z,17.60
2019-05-18T00:20:01.731Z,18.10
2019-05-18T00:22:30.194Z,19.10
2019-05-18T00:24:58.785Z,18.30
2019-05-18T00:27:27.564Z,18.90
2019-05-18T00:29:56.054Z,20.37
2019-05-18T00:32:24.637Z,20.10
2019-05-18T00:34:53.119Z,19.20
2019-05-18T00:37:21.660Z,19.90
2019-05-18T00:39:50.184Z,19.97
2019-05-18T00:42:18.780Z,19.63
2019-05-18T00:44:47.267Z,19.20
2019-05-18T00:47:15.789Z,19.23
2019-05-18T00:49:44.351Z,18.87
2019-05-18T00:52:12.874Z,19.33
2019-05-18T00:54:41.399Z,19.37
2019-05-18T00:57:09.931Z,18.93
2019-05-18T00:59:38.564Z,19.00
2019-05-18T01:02:07.075Z,18.93
2019-05-18T01:04:35.555Z,18.63
2019-05-18T01:07:04.212Z,19.73
2019-05-18T01:09:32.731Z,19.93
2019-05-18T01:12:01.239Z,19.97
2019-05-18T01:14:29.741Z,20.33
2019-05-18T01:16:58.329Z,20.37
2019-05-18T01:19:26.818Z,20.90
2019-05-18T01:21:55.368Z,21.10
2019-05-18T01:24:23.866Z,21.33
2019-05-18T01:26:52.454Z,20.33
2019-05-18T01:29:21.109Z,22.27
2019-05-18T01:31:49.642Z,21.63
2019-05-18T01:34:18.144Z,22.53
2019-05-18T01:36:46.659Z,21.57
2019-05-18T01:39:15.148Z,21.57
2019-05-18T01:41:43.667Z,21.93
2019-05-18T01:44:12.172Z,21.77
2019-05-18T01:46:40.677Z,22.87
2019-05-18T01:49:09.145Z,20.33
2019-05-18T01:51:37.690Z,21.60
2019-05-18T01:54:06.172Z,22.70
2019-05-18T01:56:34.791Z,22.93
2019-05-18T01:59:03.269Z,22.53
2019-05-18T02:01:31.763Z,22.80
2019-05-18T02:04:00.275Z,22.77
2019-05-18T02:06:28.820Z,22.50
2019-05-18T02:08:57.351Z,23.40
2019-05-18T02:11:25.910Z,22.50
2019-05-18T02:13:54.569Z,22.73
2019-05-18T02:16:23.159Z,23.27
2019-05-18T02:18:51.810Z,22.60
2019-05-18T02:21:20.288Z,22.57
2019-05-18T02:23:48.829Z,22.90
2019-05-18T02:26:17.409Z,24.20
2019-05-18T02:28:45.984Z,23.50
2019-05-18T02:31:14.478Z,23.00
2019-05-18T02:33:43.043Z,24.57
2019-05-18T02:36:11.563Z,24.17
2019-05-18T02:38:40.278Z,23.97
2019-05-18T02:41:08.793Z,24.30
2019-05-18T02:43:37.345Z,24.73
2019-05-18T02:46:05.941Z,24.67
2019-05-18T02:48:48.840Z,24.30
2019-05-18T02:51:04.692Z,25.47
2019-05-18T02:53:33.207Z,24.73
2019-05-18T02:56:01.712Z,25.37
2019-05-18T02:58:30.243Z,25.23
2019-05-18T03:00:58.733Z,25.40
2019-05-18T03:03:27.278Z,24.53
2019-05-18T03:05:56.141Z,25.40
2019-05-18T03:08:24.787Z,26.63
2019-05-18T03:10:53.355Z,26.90
2019-05-18T03:13:21.942Z,25.10
2019-05-18T03:15:50.479Z,26.23
2019-05-18T03:18:18.998Z,27.07
2019-05-18T03:20:47.506Z,26.17
2019-05-18T03:23:16.062Z,26.27
2019-05-18T03:25:44.574Z,26.23
2019-05-18T03:28:13.638Z,27.47
2019-05-18T03:30:42.151Z,28.63
2019-05-18T03:33:10.672Z,27.80
2019-05-18T03:35:39.193Z,26.30
2019-05-18T03:38:07.770Z,27.50
2019-05-18T03:40:36.275Z,28.03
2019-05-18T03:43:04.877Z,27.27
2019-05-18T03:45:33.338Z,28.43
2019-05-18T03:48:01.927Z,27.77
2019-05-18T03:50:30.384Z,27.93
2019-05-18T03:52:58.900Z,27.57
2019-05-18T03:55:27.398Z,27.67
2019-05-18T03:57:56.021Z,27.63
2019-05-18T04:00:24.586Z,28.10
2019-05-18T04:02:53.111Z,28.13
2019-05-18T04:05:21.615Z,28.80
2019-05-18T04:07:50.164Z,27.80
2019-05-18T04:10:27.402Z,28.33
2019-05-18T04:12:56.092Z,29.40
2019-05-18T04:15:24.566Z,28.27
2019-05-18T04:17:53.068Z,28.43
2019-05-18T04:20:21.573Z,28.47
2019-05-18T04:22:50.104Z,29.77
2019-05-18T04:25:18.792Z,29.43
2019-05-18T04:27:47.284Z,29.63
2019-05-18T04:30:17.497Z,28.77
2019-05-18T04:32:46.034Z,29.07
2019-05-18T04:35:14.916Z,30.27
2019-05-18T04:37:43.455Z,27.07
2019-05-18T04:40:12.578Z,29.13
2019-05-18T04:42:41.089Z,28.30
2019-05-18T04:45:10.164Z,29.53
2019-05-18T04:47:38.653Z,30.57
2019-05-18T04:50:07.950Z,29.30
2019-05-18T04:52:36.445Z,28.87
2019-05-18T04:55:06.091Z,30.33
2019-05-18T04:57:34.683Z,31.20
2019-05-18T05:00:04.156Z,28.30
2019-05-18T05:02:32.628Z,28.87
2019-05-18T05:05:01.159Z,31.67
2019-05-18T05:07:29.697Z,28.67
2019-05-18T05:09:58.256Z,28.53
2019-05-18T05:12:26.754Z,29.33
2019-05-18T05:14:55.264Z,27.70
2019-05-18T05:17:23.760Z,29.20
2019-05-18T05:19:52.281Z,29.27
2019-05-18T05:22:20.790Z,29.00
2019-05-18T05:24:49.297Z,28.37
2019-05-18T05:27:17.832Z,28.50
2019-05-18T05:29:46.393Z,29.60
2019-05-18T05:32:14.897Z,27.00
2019-05-18T05:34:43.425Z,26.57
2019-05-18T05:37:11.917Z,26.33
2019-05-18T05:39:40.447Z,25.97
2019-05-18T05:42:08.956Z,27.20
2019-05-18T05:44:37.534Z,26.40
2019-05-18T05:47:06.017Z,25.73
2019-05-18T05:49:34.562Z,25.20
2019-05-18T05:52:03.079Z,25.07
2019-05-18T05:54:31.614Z,24.60
2019-05-18T05:57:00.167Z,23.73
2019-05-18T05:59:28.630Z,25.20
2019-05-18T06:01:57.153Z,22.50
2019-05-18T06:04:32.970Z,21.93
2019-05-18T06:07:01.397Z,22.03
2019-05-18T06:09:30.032Z,20.90
2019-05-18T06:11:58.532Z,21.83
2019-05-18T06:14:27.142Z,21.27
2019-05-18T06:16:55.613Z,20.47
2019-05-18T06:19:24.115Z,19.43
2019-05-18T06:21:52.647Z,18.07
2019-05-18T06:24:21.154Z,17.57
2019-05-18T06:26:49.683Z,15.90
2019-05-18T06:29:18.187Z,15.70
2019-05-18T06:31:46.750Z,12.00
2019-05-18T06:34:15.236Z,12.97
2019-05-18T06:36:43.789Z,12.03
2019-05-18T06:39:12.432Z,10.80
2019-05-18T06:41:40.881Z,9.80
2019-05-18T06:44:09.455Z,9.27
2019-05-18T06:46:37.963Z,9.55
2019-05-18T06:49:06.547Z,8.87
2019-05-18T06:51:35.098Z,7.42
2019-05-18T06:54:03.647Z,7.50
2019-05-18T06:56:33.286Z,6.85
2019-05-18T06:59:02.255Z,7.25
2019-05-18T07:01:30.806Z,7.30
2019-05-18T07:03:59.289Z,7.72
2019-05-18T07:06:29.243Z,7.78
2019-05-18T07:08:57.724Z,6.92
2019-05-18T07:11:26.277Z,6.87
2019-05-18T07:13:54.755Z,6.78
2019-05-18T07:16:23.295Z,6.42
2019-05-18T07:18:51.806Z,7.37
2019-05-18T07:21:22.583Z,6.70
2019-05-18T07:23:50.548Z,7.10
2019-05-18T07:26:19.127Z,6.33
2019-05-18T07:28:47.718Z,6.22
2019-05-18T07:31:16.364Z,6.45
2019-05-18T07:33:44.852Z,6.70
2019-05-18T07:36:13.362Z,6.60
2019-05-18T07:38:42.122Z,6.30
2019-05-18T07:41:10.637Z,6.15
2019-05-18T07:43:39.140Z,6.30
2019-05-18T07:46:08.841Z,5.90
2019-05-18T07:48:37.498Z,6.00
2019-05-18T07:51:08.762Z,6.37
2019-05-18T07:53:37.267Z,6.70
2019-05-18T07:56:06.025Z,6.03
2019-05-18T07:58:34.826Z,6.20
2019-05-18T08:01:03.575Z,6.67
2019-05-18T08:03:32.105Z,6.10
2019-05-18T08:06:00.710Z,5.50
2019-05-18T08:08:29.226Z,5.17
2019-05-18T08:10:57.753Z,5.08
2019-05-18T08:13:26.244Z,5.47
2019-05-18T08:15:54.744Z,5.45
2019-05-18T08:18:23.240Z,5.50
2019-05-18T08:20:51.801Z,5.47
2019-05-18T08:23:20.342Z,5.20
2019-05-18T08:25:48.879Z,4.95
2019-05-18T08:28:17.438Z,5.08
2019-05-18T08:30:45.933Z,4.78
2019-05-18T08:33:14.541Z,4.87
2019-05-18T08:35:43.091Z,4.92
2019-05-18T08:38:11.628Z,4.95
2019-05-18T08:40:40.098Z,4.97
2019-05-18T08:43:08.615Z,5.10
2019-05-18T08:45:37.099Z,5.03
2019-05-18T08:48:05.603Z,4.87
2019-05-18T08:50:34.186Z,4.80
2019-05-18T08:53:02.697Z,4.75
2019-05-18T08:55:31.204Z,5.10
2019-05-18T08:57:59.703Z,4.40
2019-05-18T09:00:28.193Z,4.65
2019-05-18T09:02:57.051Z,4.22
2019-05-18T09:05:25.557Z,4.20
2019-05-18T09:07:54.083Z,4.12
2019-05-18T09:10:22.603Z,4.70
2019-05-18T09:12:51.116Z,4.80
2019-05-18T09:15:20.024Z,4.97
2019-05-18T09:17:48.594Z,4.50
2019-05-18T09:20:17.932Z,4.30
2019-05-18T09:22:46.446Z,4.53
2019-05-18T09:25:15.491Z,4.20
2019-05-18T09:27:44.093Z,4.10
2019-05-18T09:30:13.676Z,4.45
2019-05-18T09:32:42.234Z,3.95
2019-05-18T09:35:11.359Z,4.10
2019-05-18T09:37:39.969Z,4.45
2019-05-18T09:40:08.899Z,4.40
2019-05-18T09:42:37.446Z,4.70
2019-05-18T09:45:08.473Z,4.37
2019-05-18T09:47:37.046Z,4.15
2019-05-18T09:50:09.327Z,4.58
2019-05-18T09:52:46.117Z,4.72
2019-05-18T09:55:08.685Z,4.40
2019-05-18T09:57:37.163Z,4.25
2019-05-18T10:00:08.243Z,3.92
2019-05-18T10:02:37.173Z,3.83
2019-05-18T10:05:06.322Z,4.15
2019-05-18T10:07:34.983Z,3.58
2019-05-18T10:10:10.988Z,3.77
2019-05-18T10:12:39.695Z,3.92
2019-05-18T10:15:09.701Z,3.87
2019-05-18T10:17:38.227Z,3.85
2019-05-18T10:20:10.567Z,3.70
2019-05-18T10:22:53.461Z,3.42
2019-05-18T10:25:10.003Z,3.70
2019-05-18T10:27:38.641Z,3.33
2019-05-18T10:30:08.229Z,3.12
2019-05-18T10:32:36.818Z,3.20
2019-05-18T10:35:07.725Z,3.00
2019-05-18T10:37:36.264Z,2.98
2019-05-18T10:40:07.880Z,3.35
2019-05-18T10:42:36.470Z,3.10
2019-05-18T10:45:09.044Z,3.52
2019-05-18T10:47:37.540Z,3.05
2019-05-18T10:50:09.106Z,3.33
2019-05-18T10:52:37.620Z,3.50
2019-05-18T10:55:08.061Z,3.83
2019-05-18T10:57:36.574Z,4.57
2019-05-18T11:00:07.527Z,4.23
2019-05-18T11:02:36.197Z,4.00
2019-05-18T11:05:10.051Z,4.60
2019-05-18T11:07:38.606Z,4.33
2019-05-18T11:10:09.482Z,4.50
2019-05-18T11:12:38.076Z,4.50
2019-05-18T11:15:08.302Z,5.13
2019-05-18T11:17:36.804Z,4.60
2019-05-18T11:20:10.261Z,4.90
2019-05-18T11:22:38.955Z,5.27
2019-05-18T11:25:08.472Z,4.90
2019-05-18T11:27:37.022Z,4.83
2019-05-18T11:30:09.631Z,4.57
2019-05-18T11:32:38.510Z,4.47
2019-05-18T11:35:08.260Z,4.40
2019-05-18T11:37:36.856Z,4.37
2019-05-18T11:40:09.357Z,4.30
2019-05-18T11:42:38.120Z,4.33
2019-05-18T11:45:08.918Z,4.43
2019-05-18T11:47:37.637Z,4.43
2019-05-18T11:50:09.003Z,4.00
2019-05-18T11:52:38.538Z,3.80
2019-05-18T11:55:08.720Z,4.03
2019-05-18T11:57:37.328Z,3.90
2019-05-18T12:00:11.716Z,4.20
2019-05-18T12:02:40.208Z,3.90
2019-05-18T12:05:11.986Z,3.80
2019-05-18T12:07:40.580Z,3.93
2019-05-18T12:10:09.872Z,3.70
2019-05-18T12:12:38.743Z,3.80
2019-05-18T12:15:09.743Z,3.47
2019-05-18T12:17:41.083Z,3.70
2019-05-18T12:20:10.902Z,3.40
2019-05-18T12:22:39.401Z,3.40
2019-05-18T12:25:09.362Z,3.67
2019-05-18T12:27:37.985Z,3.53
2019-05-18T12:30:11.045Z,3.80
2019-05-18T12:32:39.713Z,3.80
2019-05-18T12:35:10.547Z,3.80
2019-05-18T12:37:39.135Z,3.00
2019-05-18T12:40:09.239Z,3.13
2019-05-18T12:42:37.845Z,2.80
2019-05-18T12:45:08.034Z,3.20
2019-05-18T12:47:36.689Z,2.90
2019-05-18T12:50:07.083Z,2.73
2019-05-18T12:52:35.534Z,3.10
2019-05-18T12:55:06.082Z,2.77
2019-05-18T12:57:35.098Z,2.87
2019-05-18T13:00:05.433Z,2.27
2019-05-18T13:02:34.133Z,2.77
2019-05-18T13:05:02.664Z,2.20
2019-05-18T13:07:31.928Z,2.80
2019-05-18T13:10:00.543Z,2.70
2019-05-18T13:12:29.121Z,2.57
2019-05-18T13:14:57.637Z,2.73
2019-05-18T13:17:26.139Z,2.70
2019-05-18T13:19:54.633Z,2.40
2019-05-18T13:22:23.217Z,2.43
2019-05-18T13:24:52.387Z,2.50
2019-05-18T13:27:21.035Z,2.50
2019-05-18T13:29:49.585Z,2.57
2019-05-18T13:32:18.110Z,2.63
2019-05-18T13:34:46.557Z,2.53
2019-05-18T13:37:15.071Z,2.40
2019-05-18T13:39:43.588Z,2.43
2019-05-18T13:42:12.112Z,2.80
2019-05-18T13:44:40.687Z,2.37
2019-05-18T13:47:09.171Z,2.27
2019-05-18T13:49:37.745Z,2.53
2019-05-18T13:52:06.422Z,2.53
2019-05-18T13:54:34.963Z,2.60
2019-05-18T13:57:03.608Z,2.60
2019-05-18T13:59:32.190Z,2.60
2019-05-18T14:02:00.710Z,2.53
2019-05-18T14:04:29.221Z,2.70
2019-05-18T14:06:57.767Z,2.33
2019-05-18T14:09:28.064Z,2.30
2019-05-18T14:11:56.569Z,2.27
2019-05-18T14:14:25.108Z,2.50
2019-05-18T14:16:53.638Z,2.80
2019-05-18T14:19:22.164Z,2.37
2019-05-18T14:21:50.764Z,2.50
2019-05-18T14:24:19.260Z,2.40
2019-05-18T14:26:47.796Z,2.10
2019-05-18T14:29:16.357Z,2.40
2019-05-18T14:31:47.749Z,2.50
2019-05-18T14:34:16.258Z,2.63
2019-05-18T14:36:44.866Z,2.50
2019-05-18T14:39:13.356Z,1.97
2019-05-18T14:41:42.552Z,2.40
2019-05-18T14:44:12.945Z,2.30
2019-05-18T14:46:41.462Z,2.17
2019-05-18T14:49:09.989Z,2.30
2019-05-18T14:51:38.527Z,2.80
2019-05-18T14:54:06.982Z,2.47
2019-05-18T14:56:35.549Z,2.33
2019-05-18T14:59:04.053Z,2.00
2019-05-18T15:01:32.594Z,2.20
2019-05-18T15:04:01.091Z,2.20
2019-05-18T15:06:29.765Z,2.40
2019-05-18T15:08:58.328Z,2.27
2019-05-18T15:11:26.891Z,2.60
2019-05-18T15:13:55.494Z,2.20
2019-05-18T15:16:24.010Z,2.47
2019-05-18T15:18:52.538Z,2.37
2019-05-18T15:21:21.097Z,2.37
2019-05-18T15:23:49.611Z,1.80
2019-05-18T15:26:18.111Z,2.27
2019-05-18T15:28:46.701Z,2.17
2019-05-18T15:31:15.334Z,2.00
2019-05-18T15:33:43.862Z,2.00
2019-05-18T15:36:12.451Z,2.00
2019-05-18T15:38:40.993Z,1.97
2019-05-18T15:41:09.562Z,2.23
2019-05-18T15:43:38.133Z,2.20
2019-05-18T15:46:07.257Z,2.20
2019-05-18T15:48:35.879Z,2.05
2019-05-18T15:51:04.438Z,1.97
2019-05-18T15:53:32.960Z,2.10
2019-05-18T15:56:05.763Z,2.10
2019-05-18T15:58:31.777Z,1.90
2019-05-18T16:01:00.283Z,2.10
2019-05-18T16:03:28.832Z,2.13
2019-05-18T16:05:57.419Z,1.90
2019-05-18T16:08:25.886Z,2.20
2019-05-18T16:10:57.131Z,2.30
2019-05-18T16:13:24.727Z,1.90
2019-05-18T16:15:53.290Z,2.15
2019-05-18T16:18:21.870Z,1.70
2019-05-18T16:20:50.321Z,2.27
2019-05-18T16:23:18.893Z,1.90
2019-05-18T16:25:47.362Z,2.00
2019-05-18T16:28:15.929Z,1.97
2019-05-18T16:30:44.511Z,1.97
2019-05-18T16:33:13.067Z,2.23
2019-05-18T16:35:41.561Z,1.60
2019-05-18T16:38:10.131Z,2.02
2019-05-18T16:40:38.697Z,2.10
2019-05-18T16:43:07.170Z,2.10
2019-05-18T16:45:35.831Z,2.20
2019-05-18T16:48:04.432Z,1.80
2019-05-18T16:50:33.191Z,2.20
2019-05-18T16:53:01.963Z,2.20
2019-05-18T16:55:30.876Z,2.23
2019-05-18T16:57:59.503Z,2.37
2019-05-18T17:00:28.068Z,2.10
2019-05-18T17:02:56.583Z,2.03
2019-05-18T17:05:25.138Z,2.10
2019-05-18T17:07:53.641Z,2.00
2019-05-18T17:10:22.430Z,2.30
2019-05-18T17:12:51.031Z,2.07
2019-05-18T17:15:20.391Z,2.30
2019-05-18T17:17:49.025Z,2.40
2019-05-18T17:20:18.179Z,2.00
2019-05-18T17:22:46.737Z,2.10
2019-05-18T17:25:15.793Z,2.13
2019-05-18T17:27:44.319Z,2.30
2019-05-18T17:30:13.241Z,2.30
2019-05-18T17:32:41.815Z,2.10
2019-05-18T17:35:10.943Z,2.30
2019-05-18T17:37:39.493Z,2.37
2019-05-18T17:40:08.532Z,2.37
2019-05-18T17:42:37.127Z,2.30
2019-05-18T17:45:08.190Z,2.30
2019-05-18T17:47:36.861Z,2.53
2019-05-18T17:50:07.300Z,2.10
2019-05-18T17:52:35.834Z,2.50
2019-05-18T17:55:05.823Z,2.37
2019-05-18T17:57:34.316Z,2.33
2019-05-18T18:00:03.000Z,2.43
2019-05-18T18:02:31.488Z,2.43
2019-05-18T18:04:59.996Z,2.90
2019-05-18T18:07:28.475Z,2.40
2019-05-18T18:09:56.951Z,2.60
2019-05-18T18:12:25.427Z,3.00
2019-05-18T18:14:54.137Z,3.00
2019-05-18T18:17:22.605Z,2.80
2019-05-18T18:19:51.122Z,2.97
2019-05-18T18:22:19.619Z,2.83
2019-05-18T18:24:48.128Z,3.00
2019-05-18T18:27:24.854Z,2.93
2019-05-18T18:29:46.903Z,3.07
2019-05-18T18:32:15.404Z,3.40
2019-05-18T18:34:44.051Z,3.57
2019-05-18T18:37:12.623Z,4.13
2019-05-18T18:39:41.159Z,3.87
2019-05-18T18:42:09.613Z,3.93
2019-05-18T18:44:38.156Z,4.70
2019-05-18T18:47:06.683Z,4.07
2019-05-18T18:49:35.368Z,4.47
2019-05-18T18:52:03.944Z,4.67
2019-05-18T18:54:32.539Z,5.27
2019-05-18T18:57:01.287Z,4.63
2019-05-18T18:59:29.769Z,5.17
2019-05-18T19:01:58.324Z,5.10
2019-05-18T19:04:26.804Z,4.70
2019-05-18T19:06:55.302Z,4.80
2019-05-18T19:09:23.856Z,5.70
2019-05-18T19:11:52.369Z,5.40
2019-05-18T19:14:21.010Z,4.77
2019-05-18T19:16:49.480Z,5.10
2019-05-18T19:19:17.990Z,5.20
2019-05-18T19:21:46.475Z,5.90
2019-05-18T19:24:15.020Z,6.42
2019-05-18T19:26:43.566Z,6.37
2019-05-18T19:29:12.097Z,5.23
2019-05-18T19:31:40.666Z,5.57
2019-05-18T19:34:09.125Z,6.23
2019-05-18T19:36:37.624Z,5.40
2019-05-18T19:39:06.869Z,5.35
2019-05-18T19:41:35.391Z,5.80
2019-05-18T19:44:03.886Z,5.80
2019-05-18T19:46:32.393Z,6.07
2019-05-18T19:49:00.872Z,5.67
2019-05-18T19:51:29.442Z,5.80
2019-05-18T19:53:57.991Z,5.90
2019-05-18T19:56:26.863Z,6.13
2019-05-18T19:58:55.342Z,5.97
2019-05-18T20:01:23.845Z,6.43
2019-05-18T20:03:52.320Z,6.40
2019-05-18T20:06:20.829Z,6.50
2019-05-18T20:08:52.376Z,6.30
2019-05-18T20:11:22.519Z,6.10
2019-05-18T20:13:55.472Z,6.57
2019-05-18T20:16:23.975Z,7.23
2019-05-18T20:18:52.509Z,7.07
2019-05-18T20:21:21.249Z,6.50
2019-05-18T20:23:49.769Z,7.10
2019-05-18T20:26:18.246Z,6.90
2019-05-18T20:28:46.719Z,7.07
2019-05-18T20:31:15.231Z,7.17
2019-05-18T20:33:43.741Z,6.90
2019-05-18T20:36:12.215Z,7.87
2019-05-18T20:38:40.729Z,7.63
2019-05-18T20:41:09.206Z,7.67
2019-05-18T20:43:37.906Z,7.83
2019-05-18T20:46:06.448Z,7.73
2019-05-18T20:48:34.970Z,7.90
2019-05-18T20:51:03.441Z,7.93
2019-05-18T20:53:32.004Z,8.67
2019-05-18T20:56:00.496Z,8.10
2019-05-18T20:58:39.339Z,9.00
2019-05-18T21:00:59.270Z,8.07
2019-05-18T21:03:27.781Z,8.67
2019-05-18T21:05:56.280Z,8.20
2019-05-18T21:08:24.809Z,8.97
2019-05-18T21:10:53.292Z,8.37
2019-05-18T21:13:21.790Z,8.40
2019-05-18T21:15:50.259Z,8.63
2019-05-18T21:18:18.771Z,8.03
2019-05-18T21:20:47.250Z,8.37
2019-05-18T21:23:15.754Z,9.13
2019-05-18T21:25:44.240Z,8.90
2019-05-18T21:28:12.731Z,9.23
2019-05-18T21:30:41.195Z,9.57
2019-05-18T21:33:09.724Z,8.87
2019-05-18T21:35:38.276Z,9.20
2019-05-18T21:38:06.791Z,9.10
2019-05-18T21:40:35.245Z,9.37
2019-05-18T21:43:03.761Z,9.40
2019-05-18T21:45:32.754Z,9.20
2019-05-18T21:48:01.332Z,9.30
2019-05-18T21:50:29.817Z,9.57
2019-05-18T21:52:58.325Z,8.90
2019-05-18T21:55:26.813Z,9.43
2019-05-18T21:57:55.302Z,8.30
2019-05-18T22:00:24.497Z,9.73
2019-05-18T22:02:53.081Z,9.83
2019-05-18T22:05:21.558Z,9.20
2019-05-18T22:07:50.065Z,10.00
2019-05-18T22:10:25.825Z,9.90
2019-05-18T22:12:48.981Z,9.33
2019-05-18T22:15:17.706Z,8.87
2019-05-18T22:18:04.271Z,9.43
2019-05-18T22:20:34.522Z,10.03
2019-05-18T22:23:03.546Z,9.87
2019-05-18T22:25:32.800Z,9.93
2019-05-18T22:28:01.598Z,9.10
2019-05-18T22:30:30.079Z,9.33
2019-05-18T22:32:58.628Z,10.37
2019-05-18T22:35:27.115Z,10.13
2019-05-18T22:37:55.678Z,10.20
2019-05-18T22:40:24.183Z,9.70
2019-05-18T22:42:52.663Z,9.87
2019-05-18T22:45:21.189Z,9.63
2019-05-18T22:47:49.650Z,10.00
2019-05-18T22:50:20.148Z,10.97
2019-05-18T22:52:51.316Z,10.13
2019-05-18T22:55:19.992Z,10.73
2019-05-18T22:57:50.233Z,10.53
2019-05-18T23:00:19.229Z,10.50
2019-05-18T23:02:47.720Z,11.10
2019-05-18T23:05:16.226Z,11.00
2019-05-18T23:07:44.769Z,10.70
2019-05-18T23:10:14.168Z,10.93
2019-05-18T23:12:42.659Z,11.40
2019-05-18T23:15:11.598Z,11.60
2019-05-18T23:17:40.080Z,12.23
2019-05-18T23:20:08.928Z,12.17
2019-05-18T23:22:37.507Z,12.07
2019-05-18T23:25:10.527Z,12.47
2019-05-18T23:27:38.979Z,12.77
2019-05-18T23:30:08.611Z,12.60
2019-05-18T23:32:37.868Z,13.23
2019-05-18T23:35:06.929Z,12.57
2019-05-18T23:37:35.419Z,12.03
2019-05-18T23:40:05.170Z,13.17
2019-05-18T23:42:33.709Z,13.13
2019-05-18T23:45:02.229Z,12.50
2019-05-18T23:47:30.711Z,14.23
2019-05-18T23:49:59.208Z,12.57
2019-05-18T23:52:27.684Z,12.60
2019-05-18T23:54:56.196Z,13.23
2019-05-18T23:57:24.702Z,12.47
2019-05-18T23:59:53.232Z,12.47
